createdAt,value
2017-03-21T00:00:19.585Z,95.4
2017-03-21T00:01:22.438Z,95.4
2017-03-21T00:02:24.786Z,95.4
2017-03-21T00:03:27.640Z,95.4
2017-03-21T00:04:30.661Z,95.4
2017-03-21T00:05:33.008Z,95.4
2017-03-21T00:06:35.862Z,95.4
2017-03-21T00:07:38.578Z,95.4
2017-03-21T00:08:40.795Z,95.4
2017-03-21T00:09:43.816Z,95.4
2017-03-21T00:10:46.170Z,95.4
2017-03-21T00:11:49.070Z,95.4
2017-03-21T00:12:51.788Z,95.4
2017-03-21T00:13:54.010Z,95.4
2017-03-21T00:14:57.125Z,95.4
2017-03-21T00:15:59.482Z,95.4
2017-03-21T00:17:02.194Z,95.4
2017-03-21T00:18:05.054Z,95.4
2017-03-21T00:19:07.769Z,95.4
2017-03-21T00:20:10.922Z,95.4
2017-03-21T00:22:15.682Z,95.4
2017-03-21T00:23:18.538Z,95.4
2017-03-21T00:24:20.889Z,95.4
2017-03-21T00:25:23.992Z,95.4
2017-03-21T00:26:26.338Z,95.4
2017-03-21T00:27:29.191Z,95.4
2017-03-21T00:28:31.539Z,95.4
2017-03-21T00:29:34.394Z,95.4
2017-03-21T00:30:37.550Z,95.4
2017-03-21T00:31:39.898Z,95.4
2017-03-21T00:32:42.246Z,95.4
2017-03-21T00:33:45.106Z,95.4
2017-03-21T00:34:47.958Z,95.4
2017-03-21T00:35:50.605Z,95.4
2017-03-21T00:36:52.960Z,95.4
2017-03-21T00:37:55.814Z,95.4
2017-03-21T00:38:58.536Z,95.4
2017-03-21T00:40:01.391Z,95.4
2017-03-21T00:41:03.993Z,95.4
2017-03-21T00:42:06.711Z,95.4
2017-03-21T00:43:09.060Z,95.4
2017-03-21T00:44:11.912Z,95.4
2017-03-21T00:45:14.636Z,95.4
2017-03-21T00:46:17.284Z,95.4
2017-03-21T00:47:19.631Z,95.4
2017-03-21T00:48:22.488Z,95.4
2017-03-21T00:49:25.212Z,95.4
2017-03-21T00:50:28.063Z,95.4
2017-03-21T00:51:30.711Z,95.4
2017-03-21T00:52:33.063Z,95.4
2017-03-21T00:53:35.925Z,95.4
2017-03-21T00:55:41.187Z,95.4
2017-03-21T00:56:44.345Z,95.4
2017-03-21T00:57:46.694Z,95.4
2017-03-21T00:58:49.045Z,95.4
2017-03-21T00:59:51.769Z,95.4
2017-03-21T01:00:54.621Z,95.4
2017-03-21T01:01:57.722Z,95.4
2017-03-21T01:02:59.937Z,95.4
2017-03-21T01:04:02.790Z,95.4
2017-03-21T01:05:05.150Z,95.4
2017-03-21T01:06:07.864Z,95.4
2017-03-21T01:07:11.018Z,95.4
2017-03-21T01:08:13.369Z,95.4
2017-03-21T01:09:16.102Z,95.4
2017-03-21T01:10:18.457Z,95.4
2017-03-21T01:11:21.310Z,95.4
2017-03-21T01:12:24.285Z,95.4
2017-03-21T01:13:26.502Z,95.4
2017-03-21T01:14:29.357Z,95.4
2017-03-21T01:15:32.210Z,95.4
2017-03-21T01:16:34.564Z,95.4
2017-03-21T01:17:37.716Z,95.4
2017-03-21T01:18:40.075Z,95.4
2017-03-21T01:19:42.793Z,95.4
2017-03-21T01:20:45.512Z,95.4
2017-03-21T01:21:48.228Z,95.4
2017-03-21T01:22:50.830Z,95.5
2017-03-21T01:23:53.186Z,95.5
2017-03-21T01:24:56.046Z,95.5
2017-03-21T01:25:58.902Z,95.5
2017-03-21T01:27:01.250Z,95.5
2017-03-21T01:28:04.464Z,95.5
2017-03-21T01:29:06.825Z,95.5
2017-03-21T01:30:09.176Z,95.5
2017-03-21T01:31:12.024Z,95.5
2017-03-21T01:32:14.870Z,95.5
2017-03-21T01:33:17.526Z,95.5
2017-03-21T01:34:19.742Z,95.5
2017-03-21T01:35:22.592Z,95.5
2017-03-21T01:36:25.442Z,95.5
2017-03-21T01:37:27.791Z,95.5
2017-03-21T01:38:30.834Z,95.5
2017-03-21T01:39:33.184Z,95.5
2017-03-21T01:40:36.033Z,95.5
2017-03-21T01:41:38.382Z,95.5
2017-03-21T01:42:40.966Z,95.5
2017-03-21T01:43:43.940Z,95.5
2017-03-21T01:44:46.791Z,95.5
2017-03-21T01:45:49.151Z,95.5
2017-03-21T01:46:52.002Z,95.5
2017-03-21T01:47:22.646Z,95.5
2017-03-21T01:47:54.802Z,95.5
2017-03-21T01:48:25.446Z,95.5
2017-03-21T01:48:57.403Z,95.5
2017-03-21T01:49:59.615Z,95.5
2017-03-21T01:51:02.331Z,95.5
2017-03-21T01:52:05.183Z,95.5
2017-03-21T01:53:08.038Z,95.5
2017-03-21T01:54:10.694Z,95.5
2017-03-21T01:55:13.042Z,95.5
2017-03-21T01:56:15.757Z,95.5
2017-03-21T01:57:18.607Z,95.5
2017-03-21T01:58:20.961Z,95.5
2017-03-21T01:59:24.119Z,95.5
2017-03-21T02:00:26.472Z,95.5
2017-03-21T02:01:29.323Z,95.5
2017-03-21T02:02:31.669Z,95.5
2017-03-21T02:03:34.526Z,95.5
2017-03-21T02:04:37.692Z,95.5
2017-03-21T02:05:39.909Z,95.5
2017-03-21T02:06:42.255Z,95.5
2017-03-21T02:07:45.038Z,95.5
2017-03-21T02:08:47.892Z,95.5
2017-03-21T02:09:50.554Z,95.5
2017-03-21T02:10:53.073Z,95.5
2017-03-21T02:12:02.146Z,95.5
2017-03-21T02:12:58.454Z,95.5
2017-03-21T02:14:00.838Z,95.5
2017-03-21T02:15:03.865Z,95.5
2017-03-21T02:16:06.219Z,95.5
2017-03-21T02:17:09.072Z,95.5
2017-03-21T02:18:11.419Z,95.5
2017-03-21T02:19:14.136Z,95.5
2017-03-21T02:20:17.294Z,95.5
2017-03-21T02:21:19.638Z,95.5
2017-03-21T02:22:22.487Z,95.5
2017-03-21T02:23:24.902Z,95.5
2017-03-21T02:24:27.626Z,95.5
2017-03-21T02:25:30.147Z,95.5
2017-03-21T02:26:32.997Z,95.5
2017-03-21T02:28:38.127Z,95.5
2017-03-21T02:29:40.974Z,95.5
2017-03-21T02:30:43.628Z,95.5
2017-03-21T02:31:45.976Z,95.5
2017-03-21T02:32:48.825Z,95.5
2017-03-21T02:33:51.683Z,95.5
2017-03-21T02:34:54.035Z,95.5
2017-03-21T02:35:57.183Z,95.5
2017-03-21T02:36:59.529Z,95.5
2017-03-21T02:38:01.876Z,95.5
2017-03-21T02:39:04.726Z,95.5
2017-03-21T02:40:07.576Z,95.5
2017-03-21T02:41:10.227Z,95.5
2017-03-21T02:42:12.579Z,95.5
2017-03-21T02:43:15.435Z,95.5
2017-03-21T02:44:18.290Z,95.5
2017-03-21T02:45:20.518Z,95.5
2017-03-21T02:47:26.580Z,95.5
2017-03-21T02:48:28.927Z,95.5
2017-03-21T02:49:31.278Z,95.5
2017-03-21T02:50:34.130Z,95.5
2017-03-21T02:51:36.487Z,95.5
2017-03-21T02:52:39.648Z,95.5
2017-03-21T02:53:42.003Z,95.5
2017-03-21T02:54:44.581Z,95.5
2017-03-21T02:55:47.434Z,95.5
2017-03-21T02:56:50.285Z,95.5
2017-03-21T02:57:52.935Z,95.5
2017-03-21T02:58:55.291Z,95.5
2017-03-21T02:59:58.005Z,95.5
2017-03-21T03:01:00.720Z,95.5
2017-03-21T03:02:03.564Z,95.5
2017-03-21T03:03:06.457Z,95.5
2017-03-21T03:04:08.543Z,95.5
2017-03-21T03:05:11.405Z,95.5
2017-03-21T03:06:14.260Z,95.5
2017-03-21T03:07:16.638Z,95.5
2017-03-21T03:09:22.152Z,95.5
2017-03-21T03:10:24.503Z,95.5
2017-03-21T03:11:27.540Z,95.5
2017-03-21T03:12:29.887Z,95.5
2017-03-21T03:13:32.745Z,95.5
2017-03-21T03:14:35.346Z,95.5
2017-03-21T03:15:38.063Z,95.5
2017-03-21T03:16:40.417Z,95.5
2017-03-21T03:17:43.140Z,95.5
2017-03-21T03:18:45.857Z,95.5
2017-03-21T03:19:49.007Z,95.5
2017-03-21T03:20:51.358Z,95.5
2017-03-21T03:21:53.716Z,95.5
2017-03-21T03:22:56.574Z,95.5
2017-03-21T03:23:59.430Z,95.5
2017-03-21T03:25:02.087Z,95.5
2017-03-21T03:26:04.434Z,95.5
2017-03-21T03:27:07.163Z,95.5
2017-03-21T03:28:10.019Z,95.5
2017-03-21T03:29:12.363Z,95.5
2017-03-21T03:31:18.375Z,95.5
2017-03-21T03:32:20.596Z,95.5
2017-03-21T03:33:23.457Z,95.5
2017-03-21T03:34:25.817Z,95.5
2017-03-21T03:35:28.670Z,95.5
2017-03-21T03:36:31.559Z,95.5
2017-03-21T03:37:33.919Z,95.5
2017-03-21T03:38:36.773Z,95.5
2017-03-21T03:39:39.119Z,95.5
2017-03-21T03:40:41.968Z,95.5
2017-03-21T03:41:45.066Z,95.5
2017-03-21T03:42:47.437Z,95.5
2017-03-21T03:43:49.800Z,95.5
2017-03-21T03:44:52.655Z,95.5
2017-03-21T03:45:55.238Z,95.5
2017-03-21T03:46:58.256Z,95.5
2017-03-21T03:48:00.611Z,95.5
2017-03-21T03:49:03.469Z,95.5
2017-03-21T03:50:05.820Z,95.5
2017-03-21T03:51:08.667Z,95.5
2017-03-21T03:52:11.180Z,95.5
2017-03-21T03:54:16.438Z,95.5
2017-03-21T03:55:19.294Z,95.5
2017-03-21T03:56:21.649Z,95.5
2017-03-21T03:57:24.807Z,95.5
2017-03-21T03:58:27.398Z,95.5
2017-03-21T03:59:29.753Z,95.5
2017-03-21T04:00:32.609Z,95.5
2017-03-21T04:01:34.958Z,95.5
2017-03-21T04:02:38.113Z,95.5
2017-03-21T04:03:40.466Z,95.5
2017-03-21T04:04:43.318Z,95.4
2017-03-21T04:05:45.670Z,95.4
2017-03-21T04:06:48.521Z,95.5
2017-03-21T04:07:51.682Z,95.5
2017-03-21T04:08:54.036Z,95.4
2017-03-21T04:09:56.388Z,95.4
2017-03-21T04:10:59.268Z,95.4
2017-03-21T04:12:01.614Z,95.4
2017-03-21T04:13:04.774Z,95.4
2017-03-21T04:14:07.125Z,95.4
2017-03-21T04:15:10.540Z,95.4
2017-03-21T04:17:15.297Z,95.4
2017-03-21T04:18:17.898Z,95.4
2017-03-21T04:19:20.250Z,95.4
2017-03-21T04:20:23.102Z,95.4
2017-03-21T04:21:25.822Z,95.4
2017-03-21T04:22:28.668Z,95.4
2017-03-21T04:23:31.317Z,95.4
2017-03-21T04:24:33.667Z,95.4
2017-03-21T04:25:36.515Z,95.4
2017-03-21T04:26:38.877Z,95.4
2017-03-21T04:27:41.727Z,95.4
2017-03-21T04:28:44.888Z,95.4
2017-03-21T04:29:47.246Z,95.4
2017-03-21T04:30:49.592Z,95.4
2017-03-21T04:31:52.443Z,95.4
2017-03-21T04:32:55.296Z,95.5
2017-03-21T04:33:57.950Z,95.4
2017-03-21T04:35:00.299Z,95.4
2017-03-21T04:37:05.618Z,95.4
2017-03-21T04:38:08.476Z,95.5
2017-03-21T04:39:10.995Z,95.5
2017-03-21T04:40:13.714Z,95.4
2017-03-21T04:41:16.560Z,95.5
2017-03-21T04:42:18.905Z,95.5
2017-03-21T04:43:21.628Z,95.5
2017-03-21T04:44:24.604Z,95.5
2017-03-21T04:45:26.957Z,95.5
2017-03-21T04:46:29.809Z,95.5
2017-03-21T04:47:32.154Z,95.5
2017-03-21T04:48:35.006Z,95.5
2017-03-21T04:49:38.163Z,95.5
2017-03-21T04:50:40.376Z,95.5
2017-03-21T04:51:43.230Z,95.5
2017-03-21T04:52:45.444Z,95.5
2017-03-21T04:53:48.299Z,95.5
2017-03-21T04:54:51.151Z,95.5
2017-03-21T04:55:53.509Z,95.5
2017-03-21T04:56:56.227Z,95.5
2017-03-21T04:57:59.081Z,95.5
2017-03-21T04:59:01.426Z,95.5
2017-03-21T05:00:04.529Z,95.5
2017-03-21T05:01:06.886Z,95.5
2017-03-21T05:03:12.509Z,95.5
2017-03-21T05:04:14.864Z,95.5
2017-03-21T05:05:18.023Z,95.5
2017-03-21T05:06:20.372Z,95.5
2017-03-21T05:07:22.719Z,95.5
2017-03-21T05:08:25.573Z,95.5
2017-03-21T05:09:28.293Z,95.5
2017-03-21T05:10:31.451Z,95.5
2017-03-21T05:11:33.796Z,95.5
2017-03-21T05:12:36.146Z,95.5
2017-03-21T05:13:39.061Z,95.5
2017-03-21T05:14:41.412Z,95.5
2017-03-21T05:15:44.505Z,95.5
2017-03-21T05:16:46.858Z,95.5
2017-03-21T05:17:49.716Z,95.5
2017-03-21T05:18:52.062Z,95.5
2017-03-21T05:19:54.914Z,95.5
2017-03-21T05:20:57.932Z,95.5
2017-03-21T05:22:00.280Z,95.5
2017-03-21T05:23:02.626Z,95.5
2017-03-21T05:24:05.476Z,95.5
2017-03-21T05:26:10.903Z,95.5
2017-03-21T05:27:13.257Z,95.5
2017-03-21T05:28:16.103Z,95.5
2017-03-21T05:29:19.021Z,95.5
2017-03-21T05:30:21.237Z,95.6
2017-03-21T05:32:27.300Z,95.6
2017-03-21T05:33:29.651Z,95.6
2017-03-21T05:34:32.000Z,95.6
2017-03-21T05:35:34.852Z,95.6
2017-03-21T05:37:40.471Z,95.6
2017-03-21T05:38:42.833Z,95.6
2017-03-21T05:39:45.184Z,95.6
2017-03-21T05:40:47.899Z,95.6
2017-03-21T05:41:50.610Z,95.6
2017-03-21T05:42:53.632Z,95.6
2017-03-21T05:43:55.982Z,95.6
2017-03-21T05:44:58.700Z,95.6
2017-03-21T05:46:01.554Z,95.6
2017-03-21T05:47:03.907Z,95.6
2017-03-21T05:48:07.062Z,95.5
2017-03-21T05:50:11.820Z,95.5
2017-03-21T05:51:14.669Z,95.5
2017-03-21T05:52:17.389Z,95.5
2017-03-21T05:53:20.042Z,95.5
2017-03-21T05:54:22.401Z,95.5
2017-03-21T05:55:25.126Z,95.5
2017-03-21T05:56:28.038Z,95.5
2017-03-21T05:57:30.759Z,95.5
2017-03-21T05:58:33.407Z,95.5
2017-03-21T05:59:36.124Z,95.5
2017-03-21T06:00:38.340Z,95.5
2017-03-21T06:01:41.189Z,95.5
2017-03-21T06:02:44.041Z,95.5
2017-03-21T06:03:46.511Z,95.5
2017-03-21T06:04:49.373Z,95.5
2017-03-21T06:05:51.726Z,95.5
2017-03-21T06:06:54.576Z,95.5
2017-03-21T06:07:57.430Z,95.5
2017-03-21T06:08:59.904Z,95.5
2017-03-21T06:10:02.764Z,95.5
2017-03-21T06:11:04.977Z,95.5
2017-03-21T06:12:07.870Z,95.5
2017-03-21T06:13:10.587Z,95.5
2017-03-21T06:14:13.240Z,95.4
2017-03-21T06:15:16.093Z,95.4
2017-03-21T06:16:18.440Z,95.4
2017-03-21T06:17:21.303Z,95.4
2017-03-21T06:18:24.093Z,95.4
2017-03-21T06:19:26.747Z,95.4
2017-03-21T06:20:29.100Z,95.3
2017-03-21T06:21:31.954Z,95.3
2017-03-21T06:22:34.304Z,95.3
2017-03-21T06:23:37.157Z,95.3
2017-03-21T06:24:40.264Z,95.2
2017-03-21T06:25:42.476Z,95.2
2017-03-21T06:26:45.968Z,95.1
2017-03-21T06:27:47.812Z,95.1
2017-03-21T06:28:50.667Z,95.1
2017-03-21T06:29:53.321Z,95
2017-03-21T06:30:55.682Z,95
2017-03-21T06:31:58.405Z,95
2017-03-21T06:33:00.990Z,94.9
2017-03-21T06:34:03.714Z,94.9
2017-03-21T06:35:06.873Z,94.9
2017-03-21T06:36:09.221Z,94.9
2017-03-21T06:37:12.086Z,94.8
2017-03-21T06:38:14.440Z,94.8
2017-03-21T06:39:17.296Z,94.8
2017-03-21T06:40:20.454Z,94.8
2017-03-21T06:41:22.802Z,94.8
2017-03-21T06:42:25.569Z,94.8
2017-03-21T06:43:28.286Z,94.8
2017-03-21T06:44:30.499Z,94.7
2017-03-21T06:45:33.514Z,94.7
2017-03-21T06:46:35.868Z,94.7
2017-03-21T06:47:38.720Z,94.7
2017-03-21T06:48:41.481Z,94.7
2017-03-21T06:49:44.348Z,94.7
2017-03-21T06:50:47.314Z,94.7
2017-03-21T06:51:49.659Z,94.7
2017-03-21T06:52:51.875Z,94.7
2017-03-21T06:53:54.730Z,94.7
2017-03-21T06:54:57.579Z,94.7
2017-03-21T06:56:00.683Z,94.7
2017-03-21T06:57:03.040Z,94.7
2017-03-21T06:58:05.388Z,94.7
2017-03-21T06:59:08.479Z,94.7
2017-03-21T07:00:10.824Z,94.7
2017-03-21T07:01:13.795Z,94.7
2017-03-21T07:03:19.057Z,94.7
2017-03-21T07:04:21.913Z,94.7
2017-03-21T07:05:24.278Z,94.7
2017-03-21T07:06:27.302Z,94.7
2017-03-21T07:07:29.653Z,94.7
2017-03-21T07:08:32.615Z,94.7
2017-03-21T07:09:35.337Z,94.6
2017-03-21T07:10:37.554Z,94.6
2017-03-21T07:11:40.587Z,94.6
2017-03-21T07:12:42.939Z,94.6
2017-03-21T07:13:45.659Z,94.6
2017-03-21T07:14:48.376Z,94.6
2017-03-21T07:15:51.228Z,94.6
2017-03-21T07:16:54.386Z,94.6
2017-03-21T07:17:56.601Z,94.6
2017-03-21T07:24:13.171Z,94.5
2017-03-21T07:25:15.522Z,94.5
2017-03-21T07:26:17.874Z,94.5
2017-03-21T07:27:20.735Z,94.4
2017-03-21T07:28:23.595Z,94.4
2017-03-21T07:30:29.159Z,94.3
2017-03-21T07:31:31.506Z,94.3
2017-03-21T07:32:34.366Z,94.3
2017-03-21T07:33:37.084Z,94.3
2017-03-21T07:35:42.611Z,94.2
2017-03-21T07:36:44.959Z,94.2
2017-03-21T07:37:47.810Z,94.2
2017-03-21T07:38:50.196Z,94.2
2017-03-21T07:39:53.055Z,94.2
2017-03-21T07:40:56.164Z,94.2
2017-03-21T07:41:59.012Z,94.1
2017-03-21T07:43:01.228Z,94.1
2017-03-21T07:45:06.489Z,94.1
2017-03-21T07:46:09.646Z,94
2017-03-21T07:47:11.996Z,94
2017-03-21T07:48:14.852Z,94
2017-03-21T07:49:17.205Z,93.9
2017-03-21T07:50:20.637Z,93.9
2017-03-21T07:51:22.787Z,93.9
2017-03-21T07:52:25.641Z,93.9
2017-03-21T07:54:30.898Z,93.9
2017-03-21T07:55:33.250Z,93.9
2017-03-21T07:56:36.236Z,93.9
2017-03-21T07:57:38.954Z,93.9
2017-03-21T07:58:41.817Z,93.8
2017-03-21T07:59:44.036Z,93.8
2017-03-21T08:00:46.887Z,93.7
2017-03-21T08:01:49.996Z,93.6
2017-03-21T08:02:52.346Z,93.6
2017-03-21T08:03:55.068Z,93.5
2017-03-21T08:04:57.982Z,93.4
2017-03-21T08:06:00.702Z,93.4
2017-03-21T08:08:06.077Z,93.3
2017-03-21T08:09:08.792Z,93.3
2017-03-21T08:10:11.140Z,93.2
2017-03-21T08:11:13.997Z,93.2
2017-03-21T08:12:16.847Z,93.2
2017-03-21T08:13:19.502Z,93.2
2017-03-21T08:14:22.353Z,93.2
2017-03-21T08:15:24.692Z,93.2
2017-03-21T08:16:27.546Z,93.2
2017-03-21T08:17:30.399Z,93.2
2017-03-21T08:18:33.055Z,93.2
2017-03-21T08:20:38.318Z,93.2
2017-03-21T08:21:41.169Z,93.2
2017-03-21T08:22:43.575Z,93.2
2017-03-21T08:23:46.688Z,93.2
2017-03-21T08:24:49.606Z,93.2
2017-03-21T08:25:51.959Z,93.1
2017-03-21T08:26:54.814Z,93.1
2017-03-21T08:27:57.032Z,93.1
2017-03-21T08:29:00.552Z,93.1
2017-03-21T08:30:02.893Z,93.1
2017-03-21T08:31:05.627Z,93.1
2017-03-21T08:32:07.977Z,93.1
2017-03-21T08:33:10.705Z,93.1
2017-03-21T08:34:13.730Z,93.1
2017-03-21T08:35:16.075Z,93.1
2017-03-21T08:36:18.924Z,93.1
2017-03-21T08:37:21.782Z,93.1
2017-03-21T08:38:24.635Z,93
2017-03-21T08:39:27.241Z,93
2017-03-21T08:40:30.102Z,92.9
2017-03-21T08:41:32.455Z,92.9
2017-03-21T08:42:35.304Z,92.8
2017-03-21T08:43:38.021Z,92.8
2017-03-21T08:44:41.175Z,92.7
2017-03-21T08:45:43.386Z,92.7
2017-03-21T08:46:46.234Z,92.7
2017-03-21T08:47:48.947Z,92.7
2017-03-21T08:48:51.351Z,92.7
2017-03-21T08:49:54.459Z,92.7
2017-03-21T08:50:56.809Z,92.7
2017-03-21T08:51:59.658Z,92.7
2017-03-21T08:53:02.508Z,92.6
2017-03-21T08:54:05.153Z,92.6
2017-03-21T08:55:08.867Z,92.6
2017-03-21T08:56:10.575Z,92.6
2017-03-21T08:57:13.428Z,92.6
2017-03-21T08:58:16.281Z,92.6
2017-03-21T08:59:18.632Z,92.5
2017-03-21T09:00:21.735Z,92.5
2017-03-21T09:01:24.141Z,92.5
2017-03-21T09:02:26.997Z,92.5
2017-03-21T09:03:29.850Z,92.5
2017-03-21T09:04:32.196Z,92.5
2017-03-21T09:05:35.346Z,92.6
2017-03-21T09:06:38.062Z,92.6
2017-03-21T09:07:40.406Z,92.6
2017-03-21T09:08:43.255Z,92.6
2017-03-21T09:09:46.111Z,92.6
2017-03-21T09:10:48.756Z,92.6
2017-03-21T09:11:51.606Z,92.6
2017-03-21T09:12:53.953Z,92.6
2017-03-21T09:13:56.812Z,92.6
2017-03-21T09:14:59.663Z,92.6
2017-03-21T09:16:02.680Z,92.6
2017-03-21T09:17:04.762Z,92.6
2017-03-21T09:18:07.481Z,92.7
2017-03-21T09:19:10.331Z,92.7
2017-03-21T09:20:13.182Z,92.7
2017-03-21T09:21:16.149Z,92.7
2017-03-21T09:22:18.499Z,92.7
2017-03-21T09:23:21.214Z,92.7
2017-03-21T09:24:24.075Z,92.7
2017-03-21T09:25:26.923Z,92.7
2017-03-21T09:26:29.523Z,92.7
2017-03-21T09:27:32.372Z,92.7
2017-03-21T09:28:34.589Z,92.7
2017-03-21T09:29:37.445Z,92.6
2017-03-21T09:30:40.296Z,92.6
2017-03-21T09:31:43.321Z,92.5
2017-03-21T09:32:46.038Z,92.5
2017-03-21T09:33:48.254Z,92.5
2017-03-21T09:34:51.480Z,92.4
2017-03-21T09:35:53.832Z,92.4
2017-03-21T09:36:57.143Z,92.3
2017-03-21T09:37:59.491Z,92.2
2017-03-21T09:39:02.338Z,92.1
2017-03-21T09:40:05.054Z,92.1
2017-03-21T09:41:07.636Z,92
2017-03-21T09:42:10.652Z,91.9
2017-03-21T09:43:13.006Z,91.9
2017-03-21T09:44:15.853Z,91.8
2017-03-21T09:45:18.574Z,91.8
2017-03-21T09:46:21.290Z,91.8
2017-03-21T09:47:24.395Z,91.9
2017-03-21T09:48:26.743Z,91.9
2017-03-21T09:49:29.594Z,92
2017-03-21T09:50:32.451Z,92
2017-03-21T09:51:34.732Z,92
2017-03-21T09:52:37.701Z,92
2017-03-21T09:54:42.963Z,92
2017-03-21T09:55:45.810Z,92
2017-03-21T09:56:48.528Z,92.1
2017-03-21T09:57:51.625Z,92.1
2017-03-21T09:58:53.973Z,92.2
2017-03-21T09:59:57.393Z,92.2
2017-03-21T10:00:59.613Z,92.2
2017-03-21T10:02:02.460Z,92.2
2017-03-21T10:03:05.112Z,92.3
2017-03-21T10:04:07.701Z,92.3
2017-03-21T10:05:10.418Z,92.4
2017-03-21T10:06:13.270Z,92.4
2017-03-21T10:07:16.124Z,92.5
2017-03-21T10:08:18.770Z,92.6
2017-03-21T10:09:21.116Z,92.7
2017-03-21T10:10:23.831Z,92.8
2017-03-21T10:11:26.680Z,92.9
2017-03-21T10:12:29.533Z,93
2017-03-21T10:14:35.041Z,93.1
2017-03-21T10:15:37.890Z,93.2
2017-03-21T10:16:40.235Z,93.3
2017-03-21T10:17:42.951Z,93.3
2017-03-21T10:18:45.667Z,93.4
2017-03-21T10:19:48.819Z,93.5
2017-03-21T10:20:51.164Z,93.5
2017-03-21T10:21:54.017Z,93.5
2017-03-21T10:22:56.871Z,93.6
2017-03-21T10:23:59.226Z,93.7
2017-03-21T10:25:02.330Z,93.7
2017-03-21T10:26:04.820Z,93.7
2017-03-21T10:27:07.403Z,93.8
2017-03-21T10:28:10.120Z,93.8
2017-03-21T10:29:12.840Z,93.8
2017-03-21T10:30:15.861Z,93.8
2017-03-21T10:31:18.214Z,93.8
2017-03-21T10:32:21.061Z,93.8
2017-03-21T10:33:23.950Z,93.8
2017-03-21T10:34:26.294Z,93.8
2017-03-21T10:35:29.399Z,93.8
2017-03-21T10:36:32.113Z,93.8
2017-03-21T10:37:34.325Z,93.8
2017-03-21T10:39:40.101Z,93.8
2017-03-21T10:40:43.109Z,93.8
2017-03-21T10:41:45.322Z,93.8
2017-03-21T10:42:48.172Z,93.8
2017-03-21T10:43:51.019Z,93.9
2017-03-21T10:44:53.872Z,93.9
2017-03-21T10:45:56.522Z,93.9
2017-03-21T10:46:58.873Z,93.9
2017-03-21T10:48:02.284Z,93.9
2017-03-21T10:49:04.629Z,94
2017-03-21T10:50:06.981Z,94
2017-03-21T10:51:10.137Z,94
2017-03-21T10:52:12.519Z,94.1
2017-03-21T10:53:15.235Z,94.1
2017-03-21T10:54:17.946Z,94.1
2017-03-21T10:55:20.797Z,94.1
2017-03-21T10:56:23.815Z,94.2
2017-03-21T10:57:26.162Z,94.2
2017-03-21T10:59:31.793Z,94.2
2017-03-21T11:00:34.142Z,94.2
2017-03-21T11:01:37.295Z,94.2
2017-03-21T11:02:39.694Z,94.3
2017-03-21T11:03:42.113Z,94.3
2017-03-21T11:04:44.973Z,94.3
2017-03-21T11:05:47.824Z,94.3
2017-03-21T11:06:51.398Z,94.3
2017-03-21T11:07:53.244Z,94.3
2017-03-21T11:08:55.966Z,94.3
2017-03-21T11:09:58.318Z,94.3
2017-03-21T11:11:01.166Z,94.4
2017-03-21T11:12:04.274Z,94.3
2017-03-21T11:13:06.618Z,94.3
2017-03-21T11:14:09.472Z,94.3
2017-03-21T11:15:11.821Z,94.4
2017-03-21T11:16:14.538Z,94.4
2017-03-21T11:17:17.507Z,94.3
2017-03-21T11:18:20.362Z,94.3
2017-03-21T11:19:22.707Z,94.3
2017-03-21T11:20:25.560Z,94.3
2017-03-21T11:21:28.409Z,94.3
2017-03-21T11:22:31.425Z,94.3
2017-03-21T11:23:33.777Z,94.3
2017-03-21T11:24:36.224Z,94.3
2017-03-21T11:25:38.941Z,94.3
2017-03-21T11:27:44.451Z,94.4
2017-03-21T11:28:47.304Z,94.4
2017-03-21T11:29:49.650Z,94.4
2017-03-21T11:30:52.501Z,94.4
2017-03-21T11:31:55.358Z,94.5
2017-03-21T11:32:58.372Z,94.5
2017-03-21T11:34:00.726Z,94.5
2017-03-21T11:35:03.305Z,94.5
2017-03-21T11:36:06.025Z,94.5
2017-03-21T11:37:08.746Z,94.6
2017-03-21T11:38:11.348Z,94.5
2017-03-21T11:39:14.196Z,94.6
2017-03-21T11:40:16.913Z,94.6
2017-03-21T11:41:19.629Z,94.6
2017-03-21T11:42:21.975Z,94.6
2017-03-21T11:43:25.128Z,94.7
2017-03-21T11:44:27.480Z,94.7
2017-03-21T11:45:30.330Z,94.7
2017-03-21T11:46:32.674Z,94.7
2017-03-21T11:47:35.520Z,94.7
2017-03-21T11:48:38.490Z,94.7
2017-03-21T11:49:40.850Z,94.7
2017-03-21T11:50:43.700Z,94.8
2017-03-21T11:51:46.054Z,94.8
2017-03-21T11:52:48.935Z,94.8
2017-03-21T11:53:51.929Z,94.8
2017-03-21T11:54:54.278Z,94.8
2017-03-21T11:55:56.632Z,94.8
2017-03-21T11:56:59.487Z,94.8
2017-03-21T11:58:02.211Z,94.8
2017-03-21T11:59:05.760Z,94.8
2017-03-21T12:00:07.469Z,94.8
2017-03-21T12:01:10.330Z,94.8
2017-03-21T12:02:13.181Z,94.8
2017-03-21T12:03:15.533Z,94.8
2017-03-21T12:04:18.687Z,94.8
2017-03-21T12:05:21.036Z,94.9
2017-03-21T12:06:23.888Z,94.9
2017-03-21T12:07:26.099Z,94.9
2017-03-21T12:08:28.951Z,94.9
2017-03-21T12:09:31.970Z,94.9
2017-03-21T12:10:34.320Z,94.9
2017-03-21T12:11:37.036Z,94.9
2017-03-21T12:12:39.887Z,94.9
2017-03-21T12:13:42.243Z,94.9
2017-03-21T12:14:45.348Z,94.9
2017-03-21T12:15:47.568Z,94.9
2017-03-21T12:16:50.418Z,94.9
2017-03-21T12:17:53.266Z,94.9
2017-03-21T12:18:55.616Z,94.9
2017-03-21T12:19:58.779Z,94.9
2017-03-21T12:21:00.921Z,94.9
2017-03-21T12:22:03.639Z,94.9
2017-03-21T12:23:06.492Z,94.9
2017-03-21T12:24:09.348Z,94.9
2017-03-21T12:25:12.000Z,94.9
2017-03-21T12:26:14.350Z,94.9
2017-03-21T12:27:17.068Z,94.9
2017-03-21T12:28:19.920Z,94.9
2017-03-21T12:29:22.767Z,94.9
2017-03-21T12:30:25.150Z,94.9
2017-03-21T12:31:27.864Z,94.9
2017-03-21T12:32:30.580Z,94.9
2017-03-21T12:33:33.435Z,94.9
2017-03-21T12:34:35.808Z,94.9
2017-03-21T12:35:38.842Z,94.9
2017-03-21T12:37:43.872Z,94.9
2017-03-21T12:38:46.454Z,94.9
2017-03-21T12:39:49.240Z,94.9
2017-03-21T12:40:52.399Z,94.9
2017-03-21T12:41:54.749Z,95
2017-03-21T12:42:57.095Z,95
2017-03-21T12:43:59.947Z,95
2017-03-21T12:45:02.665Z,95
2017-03-21T12:46:05.544Z,94.9
2017-03-21T12:47:07.890Z,95
2017-03-21T12:48:10.739Z,94.9
2017-03-21T12:49:13.595Z,95
2017-03-21T12:50:15.944Z,94.9
2017-03-21T12:51:18.966Z,95
2017-03-21T12:52:21.314Z,94.9
2017-03-21T12:53:24.036Z,95
2017-03-21T12:54:26.894Z,94.9
2017-03-21T12:55:29.625Z,95
2017-03-21T12:56:32.274Z,95
2017-03-21T12:57:34.622Z,95
2017-03-21T12:59:39.884Z,95
2017-03-21T13:00:42.731Z,95
2017-03-21T13:01:45.833Z,95
2017-03-21T13:02:48.180Z,95
2017-03-21T13:03:51.028Z,95
2017-03-21T13:04:53.422Z,95.1
2017-03-21T13:05:56.270Z,95.1
2017-03-21T13:06:58.975Z,95.1
2017-03-21T13:08:01.327Z,95.1
2017-03-21T13:09:04.042Z,95.1
2017-03-21T13:10:06.760Z,95.1
2017-03-21T13:11:09.612Z,95.1
2017-03-21T13:12:12.230Z,95.1
2017-03-21T13:13:15.087Z,95.1
2017-03-21T13:14:17.302Z,95.1
2017-03-21T13:15:20.025Z,95.1
2017-03-21T13:16:22.879Z,95.1
2017-03-21T13:17:25.898Z,95.1
2017-03-21T13:18:28.252Z,95.1
2017-03-21T13:19:30.963Z,95.1
2017-03-21T13:21:36.216Z,95.1
2017-03-21T13:22:39.365Z,95.1
2017-03-21T13:23:41.717Z,95.1
2017-03-21T13:24:44.066Z,95.1
2017-03-21T13:25:46.921Z,95.1
2017-03-21T13:26:49.637Z,95.1
2017-03-21T13:27:52.737Z,95.1
2017-03-21T13:28:55.086Z,95.1
2017-03-21T13:29:57.441Z,95.1
2017-03-21T13:31:00.298Z,95.1
2017-03-21T13:32:03.159Z,95.1
2017-03-21T13:33:05.810Z,95.2
2017-03-21T13:34:08.159Z,95.2
2017-03-21T13:35:11.007Z,95.1
2017-03-21T13:36:13.862Z,95.1
2017-03-21T13:37:16.240Z,95.1
2017-03-21T13:38:19.342Z,95.1
2017-03-21T13:39:21.693Z,95.1
2017-03-21T13:40:24.408Z,95.1
2017-03-21T13:41:27.123Z,95.1
2017-03-21T13:43:32.634Z,95.1
2017-03-21T13:44:34.844Z,95
2017-03-21T13:45:37.695Z,95.1
2017-03-21T13:46:40.277Z,95
2017-03-21T13:47:43.050Z,95
2017-03-21T13:48:46.199Z,95.1
2017-03-21T13:49:48.543Z,95.1
2017-03-21T13:50:51.265Z,95.1
2017-03-21T13:51:53.978Z,95.1
2017-03-21T13:53:59.537Z,95.1
2017-03-21T13:55:01.882Z,95.1
2017-03-21T13:56:04.603Z,95.1
2017-03-21T13:57:06.972Z,95.2
2017-03-21T13:58:09.823Z,95.1
2017-03-21T13:59:12.787Z,95.1
2017-03-21T14:00:15.130Z,95.1
2017-03-21T14:01:18.017Z,95.2
2017-03-21T14:02:20.364Z,95.2
2017-03-21T14:03:23.213Z,95.2
2017-03-21T14:04:25.874Z,95.2
2017-03-21T14:05:28.508Z,95.2
2017-03-21T14:07:33.767Z,95.2
2017-03-21T14:08:36.481Z,95.2
2017-03-21T14:09:39.641Z,95.2
2017-03-21T14:10:41.988Z,95.2
2017-03-21T14:11:44.761Z,95.2
2017-03-21T14:12:47.113Z,95.2
2017-03-21T14:13:49.961Z,95.2
2017-03-21T14:14:53.071Z,95.2
2017-03-21T14:15:55.441Z,95.2
2017-03-21T14:16:58.023Z,95.2
2017-03-21T14:18:00.378Z,95.2
2017-03-21T14:19:03.098Z,95.2
2017-03-21T14:20:06.118Z,95.2
2017-03-21T14:22:11.245Z,95.2
2017-03-21T14:23:13.967Z,95.2
2017-03-21T14:24:16.819Z,95.2
2017-03-21T14:25:19.427Z,95.2
2017-03-21T14:26:21.777Z,95.2
2017-03-21T14:27:24.492Z,95.2
2017-03-21T14:28:27.209Z,95.1
2017-03-21T14:29:29.928Z,95.1
2017-03-21T14:30:33.073Z,95.2
2017-03-21T14:31:35.293Z,95.2
2017-03-21T14:32:38.010Z,95.2
2017-03-21T14:33:40.860Z,95.2
2017-03-21T14:34:43.208Z,95.2